createdAt,value
2023-03-19T00:00:39.355Z,58.67
2023-03-19T00:03:06.461Z,60.65
2023-03-19T00:05:33.649Z,58.92
2023-03-19T00:08:00.821Z,63.28
2023-03-19T00:10:27.812Z,54.97
2023-03-19T00:12:55.636Z,59.92
2023-03-19T00:15:22.836Z,58.25
2023-03-19T00:17:49.750Z,55.30
2023-03-19T00:20:18.282Z,55.40
2023-03-19T00:22:45.607Z,65.45
2023-03-19T00:25:12.775Z,55.05
2023-03-19T00:27:39.786Z,58.40
2023-03-19T00:30:08.061Z,57.78
2023-03-19T00:32:36.657Z,57.00
2023-03-19T00:35:06.402Z,55.65
2023-03-19T00:37:34.443Z,61.08
2023-03-19T00:40:01.816Z,53.72
2023-03-19T00:42:28.773Z,56.25
2023-03-19T00:44:55.952Z,58.92
2023-03-19T00:47:24.994Z,63.80
2023-03-19T00:49:51.878Z,52.97
2023-03-19T00:52:18.841Z,52.78
2023-03-19T00:54:46.163Z,50.25
2023-03-19T00:57:13.181Z,49.70
2023-03-19T00:59:41.347Z,52.10
2023-03-19T01:02:08.336Z,57.28
2023-03-19T01:04:35.535Z,50.92
2023-03-19T01:07:02.491Z,50.33
2023-03-19T01:09:29.858Z,48.47
2023-03-19T01:11:57.021Z,58.25
2023-03-19T01:14:23.995Z,52.20
2023-03-19T01:16:51.195Z,48.25
2023-03-19T01:19:18.124Z,50.90
2023-03-19T01:21:46.603Z,49.53
2023-03-19T01:24:17.568Z,42.83
2023-03-19T01:26:47.820Z,44.35
2023-03-19T01:29:32.168Z,44.40
2023-03-19T01:32:07.555Z,48.35
2023-03-19T01:34:54.156Z,43.15
2023-03-19T01:37:21.387Z,45.60
2023-03-19T01:39:48.852Z,47.08
2023-03-19T01:42:16.834Z,42.05
2023-03-19T01:45:37.165Z,49.00
2023-03-19T01:48:40.744Z,46.53
2023-03-19T01:51:16.234Z,46.53
2023-03-19T01:53:58.931Z,41.03
2023-03-19T01:56:36.892Z,46.63
2023-03-19T01:59:37.954Z,39.28
2023-03-19T02:02:44.833Z,43.97
2023-03-19T02:08:11.448Z,42.80
2023-03-19T02:10:40.614Z,44.40
2023-03-19T02:13:07.602Z,40.40
2023-03-19T02:15:34.541Z,40.53
2023-03-19T02:18:01.629Z,39.85
2023-03-19T02:20:48.324Z,44.05
2023-03-19T02:23:30.372Z,40.03
2023-03-19T02:26:11.619Z,42.00
2023-03-19T02:28:42.492Z,44.28
2023-03-19T02:31:11.093Z,46.00
2023-03-19T02:33:38.413Z,46.30
2023-03-19T02:36:10.325Z,40.25
2023-03-19T02:38:40.891Z,39.75
2023-03-19T02:41:09.013Z,43.05
2023-03-19T02:43:38.873Z,40.50
2023-03-19T02:46:09.714Z,42.60
2023-03-19T02:48:37.652Z,40.20
2023-03-19T02:51:05.667Z,40.30
2023-03-19T02:53:34.746Z,35.28
2023-03-19T02:56:01.828Z,39.42
2023-03-19T02:58:28.854Z,43.92
2023-03-19T03:00:55.920Z,39.40
2023-03-19T03:03:23.001Z,45.35
2023-03-19T03:05:50.000Z,39.92
2023-03-19T03:08:16.916Z,34.65
2023-03-19T03:10:43.922Z,36.53
2023-03-19T03:13:12.272Z,37.80
2023-03-19T03:15:39.443Z,37.13
2023-03-19T03:18:06.441Z,40.20
2023-03-19T03:20:33.619Z,38.55
2023-03-19T03:23:00.976Z,38.65
2023-03-19T03:25:28.311Z,33.63
2023-03-19T03:27:55.435Z,40.78
2023-03-19T03:30:22.881Z,40.88
2023-03-19T03:32:50.084Z,40.78
2023-03-19T03:35:21.895Z,40.60
2023-03-19T03:37:50.413Z,40.08
2023-03-19T03:40:17.675Z,36.63
2023-03-19T03:42:44.992Z,40.58
2023-03-19T03:45:13.088Z,40.78
2023-03-19T03:47:42.224Z,39.75
2023-03-19T03:50:11.102Z,37.42
2023-03-19T03:52:39.370Z,34.85
2023-03-19T03:55:07.548Z,39.38
2023-03-19T03:57:34.887Z,39.38
2023-03-19T04:00:01.918Z,38.53
2023-03-19T04:02:29.073Z,38.90
2023-03-19T04:04:56.291Z,40.03
2023-03-19T04:07:23.258Z,34.85
2023-03-19T04:12:26.291Z,34.55
2023-03-19T04:14:53.502Z,38.67
2023-03-19T04:17:20.523Z,33.75
2023-03-19T04:19:47.457Z,43.88
2023-03-19T04:22:14.609Z,41.72
2023-03-19T04:24:41.893Z,38.55
2023-03-19T04:27:09.094Z,42.08
2023-03-19T04:29:37.890Z,35.60
2023-03-19T04:32:05.558Z,36.97
2023-03-19T04:34:32.625Z,44.70
2023-03-19T04:36:59.627Z,33.63
2023-03-19T04:39:27.279Z,37.92
2023-03-19T04:41:54.218Z,36.63
2023-03-19T04:44:39.098Z,36.72
2023-03-19T04:47:06.582Z,38.75
2023-03-19T04:49:47.088Z,34.05
2023-03-19T04:52:14.666Z,37.75
2023-03-19T04:54:41.644Z,37.88
2023-03-19T04:57:09.151Z,40.40
2023-03-19T04:59:38.685Z,36.17
2023-03-19T05:02:06.160Z,32.53
2023-03-19T05:04:35.388Z,35.00
2023-03-19T05:07:07.433Z,32.55
2023-03-19T05:09:35.842Z,39.83
2023-03-19T05:12:02.760Z,41.53
2023-03-19T05:14:35.381Z,47.20
2023-03-19T05:17:11.278Z,50.25
2023-03-19T05:19:53.899Z,45.97
2023-03-19T05:22:21.059Z,47.50
2023-03-19T05:24:48.090Z,50.72
2023-03-19T05:27:15.237Z,52.47
2023-03-19T05:30:04.478Z,51.40
2023-03-19T05:32:58.863Z,54.92
2023-03-19T05:35:39.339Z,50.03
2023-03-19T05:38:13.976Z,52.50
2023-03-19T05:40:43.943Z,52.28
2023-03-19T05:43:24.258Z,51.55
2023-03-19T05:45:52.806Z,50.03
2023-03-19T05:48:23.584Z,53.75
2023-03-19T05:50:52.636Z,53.42
2023-03-19T05:53:23.261Z,55.13
2023-03-19T05:56:13.234Z,49.63
2023-03-19T05:58:52.989Z,52.65
2023-03-19T06:01:25.664Z,52.58
2023-03-19T06:03:52.880Z,48.35
2023-03-19T06:06:19.844Z,50.22
2023-03-19T06:08:51.709Z,45.65
2023-03-19T06:11:40.578Z,51.80
2023-03-19T06:14:26.639Z,40.38
2023-03-19T06:17:13.773Z,51.10
2023-03-19T06:19:40.845Z,50.08
2023-03-19T06:22:08.984Z,46.80
2023-03-19T06:24:36.943Z,48.72
2023-03-19T06:27:04.303Z,50.83
2023-03-19T06:29:31.723Z,46.13
2023-03-19T06:32:07.935Z,47.55
2023-03-19T06:34:41.655Z,49.65
2023-03-19T06:37:09.077Z,46.67
2023-03-19T06:39:36.046Z,51.60
2023-03-19T06:42:03.143Z,53.95
2023-03-19T06:44:30.124Z,49.10
2023-03-19T06:46:57.239Z,56.72
2023-03-19T06:49:24.349Z,58.20
2023-03-19T06:51:51.591Z,52.90
2023-03-19T06:54:18.628Z,56.53
2023-03-19T06:56:46.236Z,54.15
2023-03-19T06:59:13.220Z,47.35
2023-03-19T07:01:43.220Z,54.17
2023-03-19T07:04:11.286Z,51.90
2023-03-19T07:06:38.382Z,49.47
2023-03-19T07:09:05.552Z,52.72
2023-03-19T07:11:35.637Z,44.60
2023-03-19T07:14:03.634Z,48.17
2023-03-19T07:16:30.951Z,48.05
2023-03-19T07:18:58.041Z,43.70
2023-03-19T07:21:26.892Z,41.00
2023-03-19T07:23:54.025Z,47.63
2023-03-19T07:26:21.085Z,44.15
2023-03-19T07:28:48.491Z,45.08
2023-03-19T07:31:16.948Z,43.55
2023-03-19T07:33:44.069Z,38.60
2023-03-19T07:36:11.324Z,45.67
2023-03-19T07:38:38.205Z,42.15
2023-03-19T07:41:05.309Z,40.25
2023-03-19T07:43:32.680Z,43.10
2023-03-19T07:46:00.839Z,38.50
2023-03-19T07:48:28.058Z,36.33
2023-03-19T07:50:55.184Z,37.80
2023-03-19T07:53:22.196Z,39.13
2023-03-19T07:55:49.246Z,43.20
2023-03-19T07:58:17.074Z,38.22
2023-03-19T08:00:45.217Z,43.20
2023-03-19T08:03:12.629Z,39.47
2023-03-19T08:05:39.815Z,33.47
2023-03-19T08:08:06.777Z,39.58
2023-03-19T08:10:36.266Z,34.08
2023-03-19T08:13:05.190Z,31.90
2023-03-19T08:15:32.590Z,38.05
2023-03-19T08:18:04.954Z,41.53
2023-03-19T08:20:33.262Z,32.50
2023-03-19T08:23:00.367Z,35.25
2023-03-19T08:25:27.604Z,34.75
2023-03-19T08:27:54.942Z,31.73
2023-03-19T08:30:22.583Z,33.10
2023-03-19T08:32:50.575Z,34.83
2023-03-19T08:35:17.644Z,37.28
2023-03-19T08:37:44.567Z,33.42
2023-03-19T08:40:12.003Z,33.38
2023-03-19T08:42:44.438Z,31.63
2023-03-19T08:45:13.853Z,31.48
2023-03-19T08:47:41.283Z,30.50
2023-03-19T08:50:08.904Z,36.95
2023-03-19T08:52:36.122Z,33.63
2023-03-19T08:55:03.712Z,35.45
2023-03-19T08:57:32.645Z,35.88
2023-03-19T09:00:00.198Z,36.10
2023-03-19T09:02:27.448Z,32.33
2023-03-19T09:04:54.603Z,33.75
2023-03-19T09:07:21.556Z,34.80
2023-03-19T09:09:49.420Z,36.67
2023-03-19T09:12:17.636Z,33.22
2023-03-19T09:14:44.884Z,35.67
2023-03-19T09:17:13.466Z,30.23
2023-03-19T09:19:40.886Z,35.20
2023-03-19T09:22:07.823Z,34.30
2023-03-19T09:24:34.825Z,34.20
2023-03-19T10:15:28.535Z,26.93
2023-03-19T10:18:11.262Z,29.10
2023-03-19T10:20:56.705Z,28.48
2023-03-19T10:23:27.591Z,28.83
2023-03-19T10:25:58.580Z,33.90
2023-03-19T10:31:21.273Z,31.05
2023-03-19T16:22:00.733Z,35.60
2023-03-19T16:24:34.136Z,35.20
2023-03-19T16:27:07.064Z,33.67
2023-03-19T16:29:46.010Z,31.90
2023-03-19T16:32:15.714Z,31.58
2023-03-19T16:34:50.152Z,34.20
2023-03-19T16:37:31.977Z,34.03
2023-03-19T16:40:29.053Z,33.03
2023-03-19T16:43:07.272Z,33.40
2023-03-19T16:45:35.281Z,47.22
2023-03-19T16:48:06.185Z,55.72
2023-03-19T16:50:41.188Z,42.60
2023-03-19T16:53:24.566Z,38.70
2023-03-19T16:55:53.247Z,34.65
2023-03-19T16:58:26.157Z,35.95
2023-03-19T17:00:53.354Z,39.30
2023-03-19T17:03:20.297Z,32.60
2023-03-19T17:05:48.466Z,30.58
2023-03-19T17:08:16.033Z,33.88
2023-03-19T17:10:48.547Z,35.15
2023-03-19T17:13:28.221Z,37.55
2023-03-19T17:15:59.563Z,28.52
2023-03-19T17:18:33.578Z,31.35
2023-03-19T17:21:03.588Z,29.58
2023-03-19T17:23:32.435Z,33.28
2023-03-19T17:25:59.818Z,32.20
2023-03-19T17:28:26.814Z,35.33
2023-03-19T17:30:53.780Z,35.50
2023-03-19T17:33:24.361Z,30.88
2023-03-19T17:35:53.086Z,31.85
2023-03-19T17:38:21.819Z,34.03
2023-03-19T17:40:48.905Z,39.20
2023-03-19T17:43:15.864Z,34.15
2023-03-19T17:45:46.695Z,34.40
2023-03-19T17:48:21.390Z,35.63
2023-03-19T17:50:49.831Z,32.65
2023-03-19T17:53:18.657Z,37.50
2023-03-19T17:55:46.760Z,36.42
2023-03-19T17:58:19.528Z,34.00
2023-03-19T18:00:48.293Z,30.50
2023-03-19T18:03:18.619Z,31.08
2023-03-19T18:05:45.757Z,35.22
2023-03-19T18:08:17.999Z,31.17
2023-03-19T18:10:45.867Z,31.38
2023-03-19T18:13:12.803Z,31.88
2023-03-19T18:15:42.566Z,35.90
2023-03-19T18:18:21.428Z,34.10
2023-03-19T18:20:49.100Z,35.38
2023-03-19T18:23:16.819Z,33.40
2023-03-19T18:25:45.051Z,30.42
2023-03-19T18:28:12.086Z,37.10
2023-03-19T18:30:40.654Z,38.35
2023-03-19T18:33:13.753Z,37.33
2023-03-19T18:35:44.985Z,36.65
2023-03-19T18:38:18.289Z,37.83
2023-03-19T18:40:45.934Z,40.67
2023-03-19T18:43:15.944Z,39.33
2023-03-19T18:45:45.706Z,37.17
2023-03-19T18:48:38.748Z,37.15
2023-03-19T18:51:06.068Z,41.00
2023-03-19T18:53:33.098Z,38.53
2023-03-19T18:56:02.306Z,36.70
2023-03-19T18:58:29.392Z,43.67
2023-03-19T19:00:57.752Z,47.15
2023-03-19T19:03:29.531Z,43.90
2023-03-19T19:05:57.388Z,39.90
2023-03-19T19:08:26.709Z,38.47
2023-03-19T19:10:58.826Z,40.78
2023-03-19T19:13:29.351Z,44.60
2023-03-19T19:15:56.302Z,43.65
2023-03-19T19:18:30.581Z,40.08
2023-03-19T19:20:58.590Z,44.25
2023-03-19T19:23:30.196Z,44.05
2023-03-19T19:25:57.278Z,45.78
2023-03-19T19:28:30.693Z,46.95
2023-03-19T19:30:59.944Z,45.10
2023-03-19T19:33:31.732Z,44.47
2023-03-19T19:35:58.968Z,43.00
2023-03-19T19:38:26.024Z,43.63
2023-03-19T19:40:56.263Z,44.85
2023-03-19T19:43:25.619Z,41.88
2023-03-19T19:45:54.600Z,45.60
2023-03-19T19:48:27.409Z,41.33
2023-03-19T19:50:56.129Z,42.80
2023-03-19T19:53:29.504Z,43.83
2023-03-19T19:55:56.640Z,40.53
2023-03-19T19:58:33.098Z,38.30
2023-03-19T20:01:04.199Z,36.78
2023-03-19T20:03:33.309Z,40.28
2023-03-19T20:06:01.534Z,46.08
2023-03-19T20:08:28.883Z,41.50
2023-03-19T20:10:56.720Z,38.63
2023-03-19T20:13:29.105Z,38.95
2023-03-19T20:15:58.209Z,40.03
2023-03-19T20:18:30.947Z,40.53
2023-03-19T20:20:59.332Z,40.93
2023-03-19T20:23:26.640Z,42.33
2023-03-19T20:25:54.948Z,44.70
2023-03-19T20:28:32.523Z,40.03
2023-03-19T20:31:00.807Z,48.08
2023-03-19T20:33:28.797Z,43.47
2023-03-19T20:35:55.856Z,41.00
2023-03-19T20:38:23.045Z,37.92
2023-03-19T20:40:53.942Z,38.65
2023-03-19T20:43:30.865Z,38.55
2023-03-19T20:46:01.887Z,43.58
2023-03-19T20:48:29.111Z,40.75
2023-03-19T20:50:56.185Z,41.03
2023-03-19T20:53:23.249Z,44.20
2023-03-19T20:55:51.003Z,39.08
2023-03-19T20:58:28.334Z,38.08
2023-03-19T21:00:57.898Z,41.45
2023-03-19T21:03:27.264Z,47.42
2023-03-19T21:06:02.050Z,43.00
2023-03-19T21:08:34.270Z,40.85
2023-03-19T21:11:02.341Z,40.75
2023-03-19T21:13:29.906Z,42.70
2023-03-19T21:15:56.944Z,43.20
2023-03-19T21:18:24.181Z,42.78
2023-03-19T21:20:54.759Z,41.15
2023-03-19T21:23:31.879Z,38.47
2023-03-19T21:26:03.960Z,42.90
2023-03-19T21:28:49.463Z,45.13
2023-03-19T21:31:18.995Z,46.78
2023-03-19T21:33:47.622Z,52.35
2023-03-19T21:36:15.128Z,52.47
2023-03-19T21:38:42.533Z,44.63
2023-03-19T21:41:21.821Z,50.42
2023-03-19T21:43:53.984Z,50.00
2023-03-19T21:46:28.452Z,51.97
2023-03-19T21:48:56.848Z,48.20
2023-03-19T21:51:25.202Z,49.03
2023-03-19T21:53:52.399Z,42.58
2023-03-19T21:56:19.299Z,46.80
2023-03-19T21:58:46.799Z,44.17
2023-03-19T22:01:23.672Z,45.15
2023-03-19T22:03:55.019Z,43.05
2023-03-19T22:06:22.601Z,45.75
2023-03-19T22:08:51.049Z,43.25
2023-03-19T22:11:20.609Z,41.97
2023-03-19T22:13:48.446Z,49.00
2023-03-19T22:16:24.034Z,48.80
2023-03-19T22:18:52.194Z,44.22
2023-03-19T22:21:21.999Z,43.97
2023-03-19T22:23:49.454Z,51.92
2023-03-19T22:26:25.660Z,52.80
2023-03-19T22:28:53.121Z,48.33
2023-03-19T22:31:20.181Z,44.55
2023-03-19T22:33:48.745Z,49.47
2023-03-19T22:36:15.875Z,54.38
2023-03-19T22:38:44.948Z,60.65
2023-03-19T22:41:21.963Z,65.50
2023-03-19T22:43:49.443Z,52.25
2023-03-19T22:46:19.698Z,48.92
2023-03-19T22:48:50.173Z,46.70
2023-03-19T22:51:19.998Z,51.17
2023-03-19T22:53:47.659Z,49.55
2023-03-19T22:56:16.145Z,49.95
2023-03-19T22:58:43.843Z,49.22
2023-03-19T23:01:29.502Z,48.85
2023-03-19T23:03:57.149Z,50.75
2023-03-19T23:06:30.598Z,53.22
2023-03-19T23:11:25.606Z,51.83
2023-03-19T23:13:54.706Z,48.40
2023-03-19T23:16:24.717Z,43.28
2023-03-19T23:18:52.275Z,45.55
2023-03-19T23:21:20.929Z,52.20
2023-03-19T23:23:47.915Z,49.28
2023-03-19T23:26:25.294Z,45.83
2023-03-19T23:28:53.032Z,46.92
2023-03-19T23:31:20.113Z,50.45
2023-03-19T23:33:47.304Z,44.28
2023-03-19T23:36:14.403Z,46.95
2023-03-19T23:38:41.596Z,44.63
2023-03-19T23:41:24.249Z,47.55
2023-03-19T23:43:52.813Z,44.78
2023-03-19T23:46:21.144Z,55.47
2023-03-19T23:48:48.306Z,49.97
2023-03-19T23:51:16.145Z,48.72
2023-03-19T23:53:43.852Z,53.17
2023-03-19T23:56:26.046Z,52.13
2023-03-19T23:58:55.699Z,54.80
